Okazaki, Japan
Current Conditions -  °F | °C
As of 9:30 AM on Saturday 25 Oct 2014 (Local Time) from RJGG Reporting Station
Scattered Clouds Scattered Clouds  
Wind Chill: 64°   Ceiling: Unl
Heat Index: 64°   Visibility: 6mi
Dew Point: 55°   Wind: 3mph
Humidity: 73%   Direction: 50°NE
Pressure: 30.21"   Gusts: NA
Location:  34.96°N, 137.16°E
Report Text: RJGG 250030Z 05003KT 360V100 9999 FEW015 SCT/// 18/13 Q1023 BECMG 23005KT
Loading
Personal Weather Stations






























Interactive Weather Map
Tropical Storm Tracking
New forecast layout! Learn more

10-Day Weather Forecast

Advertisements
Track Severe Weather on mobile